Time;durP1;ratioP1;P1;durP2;ratioP2;P2;SDS_P1;SDS_P2;PMS_P1;PMS_P2;Temp;Humidity;BMP_temperature;BMP_pressure;BME280_temperature;BME280_humidity;BME280_pressure;Samples;Min_cycle;Max_cycle;Signal;HPM_P1;HPM_P2
2022/09/08 00:02:37;;;;;;;6.60;3.30;;;;;;;;;;4968873;28;20219;-80
2022/09/08 00:05:48;;;;;;;6.17;2.90;;;;;;;;;;4957879;28;20183;-80
2022/09/08 00:08:55;;;;;;;6.60;2.90;;;;;;;;;;4979883;28;20639;-80
2022/09/08 00:12:03;;;;;;;5.27;2.53;;;;;;;;;;4969819;28;20218;-80
2022/09/08 00:15:09;;;;;;;7.17;2.73;;;;;;;;;;4967859;28;20678;-80
2022/09/08 00:18:13;;;;;;;4.73;2.37;;;;;;;;;;4979408;28;20183;-79
2022/09/08 00:21:24;;;;;;;4.47;2.43;;;;;;;;;;4979848;28;20218;-80
2022/09/08 00:24:28;;;;;;;3.47;2.13;;;;;;;;;;4990016;28;20194;-80
2022/09/08 00:27:33;;;;;;;5.33;2.30;;;;;;;;;;4967937;28;20183;-80
2022/09/08 00:30:36;;;;;;;8.57;2.37;;;;;;;;;;4979519;28;20199;-79
2022/09/08 00:33:42;;;;;;;4.33;1.93;;;;;;;;;;4968131;28;20199;-79
2022/09/08 00:36:46;;;;;;;3.67;1.80;;;;;;;;;;4968181;28;20226;-79
2022/09/08 00:39:50;;;;;;;4.60;1.70;;;;;;;;;;4979699;28;20638;-80
2022/09/08 00:43:02;;;;;;;3.00;1.43;;;;;;;;;;4990865;28;20575;-79
2022/09/08 00:46:11;;;;;;;7.00;1.90;;;;;;;;;;4968121;28;20175;-79
2022/09/08 00:49:18;;;;;;;5.57;2.03;;;;;;;;;;4990581;28;20187;-79
2022/09/08 00:52:27;;;;;;;4.20;1.63;;;;;;;;;;4956992;28;20215;-79
2022/09/08 00:55:36;;;;;;;3.13;1.47;;;;;;;;;;4978577;28;20682;-80
2022/09/08 00:58:41;;;;;;;3.00;1.50;;;;;;;;;;4981630;28;20183;-79
2022/09/08 01:01:45;;;;;;;3.37;1.30;;;;;;;;;;4980948;28;20222;-79
2022/09/08 01:04:54;;;;;;;3.83;1.27;;;;;;;;;;4967883;28;20175;-79
2022/09/08 01:15:11;;;;;;;3.70;1.30;;;;;;;;;;4998038;28;20541;-79
2022/09/08 01:18:15;;;;;;;2.13;1.20;;;;;;;;;;4999403;28;20198;-80
2022/09/08 01:21:39;;;;;;;8.97;1.50;;;;;;;;;;5010540;28;20213;-79
2022/09/08 01:24:52;;;;;;;11.20;1.73;;;;;;;;;;5010633;28;20186;-79
2022/09/08 01:28:07;;;;;;;3.23;1.00;;;;;;;;;;4998250;28;20179;-79
2022/09/08 01:31:13;;;;;;;6.27;1.47;;;;;;;;;;5009156;28;20218;-80
2022/09/08 01:34:17;;;;;;;5.67;1.67;;;;;;;;;;5008636;28;20186;-79
2022/09/08 01:37:22;;;;;;;3.63;1.90;;;;;;;;;;5009196;28;20217;-79
2022/09/08 01:40:26;;;;;;;4.00;1.30;;;;;;;;;;5009589;28;20182;-79
2022/09/08 01:43:30;;;;;;;3.60;1.40;;;;;;;;;;5008853;28;20181;-80
2022/09/08 01:46:34;;;;;;;2.80;1.20;;;;;;;;;;4998066;28;20178;-79
2022/09/08 01:49:38;;;;;;;2.17;1.40;;;;;;;;;;5000918;28;20209;-79
2022/09/08 01:52:43;;;;;;;7.03;1.80;;;;;;;;;;4987140;28;20213;-79
2022/09/08 01:55:48;;;;;;;6.07;2.30;;;;;;;;;;4985120;28;20206;-78
2022/09/08 01:58:52;;;;;;;5.00;1.70;;;;;;;;;;4976165;28;20193;-79
2022/09/08 02:01:56;;;;;;;3.57;1.50;;;;;;;;;;4957171;28;20214;-79
2022/09/08 02:05:00;;;;;;;3.63;1.37;;;;;;;;;;4967893;28;20182;-80
2022/09/08 02:08:04;;;;;;;1.50;1.17;;;;;;;;;;4968145;28;20198;-80
2022/09/08 02:11:09;;;;;;;2.33;1.23;;;;;;;;;;4967278;28;20218;-80
2022/09/08 02:14:13;;;;;;;2.23;1.27;;;;;;;;;;4980069;28;20198;-80
2022/09/08 02:17:17;;;;;;;1.70;1.20;;;;;;;;;;4966940;28;20218;-80
2022/09/08 02:20:22;;;;;;;3.43;1.50;;;;;;;;;;4962708;28;20206;-79
2022/09/08 02:23:26;;;;;;;3.03;1.33;;;;;;;;;;4963936;28;20182;-79
2022/09/08 02:26:30;;;;;;;4.37;1.20;;;;;;;;;;4974098;28;20178;-80
2022/09/08 02:29:34;;;;;;;2.80;1.20;;;;;;;;;;4974322;28;20201;-80
2022/09/08 02:32:39;;;;;;;2.67;1.20;;;;;;;;;;4975959;28;20217;-80
2022/09/08 02:35:44;;;;;;;3.57;1.37;;;;;;;;;;4966222;28;20210;-80
2022/09/08 02:38:50;;;;;;;5.37;1.53;;;;;;;;;;4975765;28;20178;-80
2022/09/08 02:41:54;;;;;;;1.80;1.23;;;;;;;;;;4998504;28;20214;-80
2022/09/08 02:44:58;;;;;;;2.93;1.30;;;;;;;;;;4975443;28;20187;-80
2022/09/08 02:48:02;;;;;;;1.90;1.37;;;;;;;;;;4998683;28;20183;-80
2022/09/08 02:51:08;;;;;;;2.53;1.30;;;;;;;;;;4997972;28;20716;-80
2022/09/08 02:54:12;;;;;;;4.67;1.20;;;;;;;;;;4976890;28;20202;-80
2022/09/08 02:57:16;;;;;;;2.73;1.20;;;;;;;;;;4986898;28;20222;-80
2022/09/08 03:00:21;;;;;;;3.10;1.30;;;;;;;;;;4980342;28;20530;-79
2022/09/08 03:03:26;;;;;;;3.53;1.23;;;;;;;;;;4964899;28;20178;-80
2022/09/08 03:06:30;;;;;;;4.77;1.10;;;;;;;;;;4964627;28;20206;-80
2022/09/08 03:09:34;;;;;;;2.97;1.43;;;;;;;;;;4981252;28;20641;-80
2022/09/08 03:12:38;;;;;;;2.37;1.30;;;;;;;;;;4983117;28;20218;-80
2022/09/08 03:15:43;;;;;;;1.70;1.30;;;;;;;;;;4997056;28;20175;-79
2022/09/08 03:18:48;;;;;;;2.27;1.10;;;;;;;;;;4996508;28;20183;-79
2022/09/08 03:21:52;;;;;;;2.60;1.30;;;;;;;;;;4995623;28;20225;-80
2022/09/08 03:24:56;;;;;;;2.80;1.20;;;;;;;;;;5006329;28;20179;-80
2022/09/08 03:28:01;;;;;;;5.77;1.43;;;;;;;;;;4994810;28;20178;-80
2022/09/08 03:31:10;;;;;;;1.80;1.20;;;;;;;;;;4995857;28;20213;-80
2022/09/08 03:34:14;;;;;;;3.47;1.33;;;;;;;;;;4974786;28;20198;-79
2022/09/08 03:37:18;;;;;;;1.33;1.17;;;;;;;;;;4974508;28;20210;-80
2022/09/08 03:40:22;;;;;;;2.17;1.20;;;;;;;;;;4963423;28;20195;-80
2022/09/08 03:43:27;;;;;;;2.57;1.40;;;;;;;;;;4986560;28;20202;-79
2022/09/08 03:46:31;;;;;;;5.27;1.40;;;;;;;;;;5001194;28;20201;-80
2022/09/08 03:49:35;;;;;;;2.70;1.57;;;;;;;;;;4981447;28;20200;-80
2022/09/08 03:52:39;;;;;;;1.80;1.40;;;;;;;;;;5003990;28;20213;-80
2022/09/08 03:55:43;;;;;;;2.50;1.60;;;;;;;;;;4981363;28;20178;-80
2022/09/08 03:58:47;;;;;;;3.67;1.43;;;;;;;;;;4979617;28;20198;-80
2022/09/08 04:01:53;;;;;;;2.53;1.40;;;;;;;;;;5003429;28;20222;-80
2022/09/08 04:04:58;;;;;;;1.87;1.60;;;;;;;;;;4976765;28;20210;-80
2022/09/08 04:08:02;;;;;;;1.60;1.50;;;;;;;;;;4981356;28;20666;-80
2022/09/08 04:11:07;;;;;;;3.03;1.67;;;;;;;;;;4989696;28;20225;-80
2022/09/08 04:14:11;;;;;;;4.43;1.73;;;;;;;;;;4979753;28;20182;-80
2022/09/08 04:17:16;;;;;;;2.77;1.53;;;;;;;;;;5001219;28;20210;-80
2022/09/08 04:20:21;;;;;;;4.17;1.53;;;;;;;;;;4979782;28;20206;-79
2022/09/08 04:23:26;;;;;;;4.63;1.80;;;;;;;;;;4978919;28;20202;-80
2022/09/08 04:26:31;;;;;;;2.47;1.77;;;;;;;;;;4991312;28;20174;-80
2022/09/08 04:29:35;;;;;;;2.47;1.67;;;;;;;;;;4999294;28;20178;-79
2022/09/08 04:32:39;;;;;;;2.23;1.77;;;;;;;;;;4999806;28;20214;-80
2022/09/08 04:35:44;;;;;;;2.70;1.20;;;;;;;;;;4987803;28;20190;-79
2022/09/08 04:38:48;;;;;;;2.47;1.50;;;;;;;;;;4976097;28;20170;-80
2022/09/08 04:41:53;;;;;;;1.63;1.47;;;;;;;;;;4987139;28;20225;-79
2022/09/08 04:44:57;;;;;;;3.30;1.70;;;;;;;;;;4977149;28;20178;-80
2022/09/08 04:48:02;;;;;;;4.33;1.77;;;;;;;;;;5000997;28;20178;-82
2022/09/08 04:51:06;;;;;;;4.57;1.97;;;;;;;;;;5001426;28;20217;-79
2022/09/08 04:54:10;;;;;;;9.13;2.57;;;;;;;;;;4990386;28;20182;-79
2022/09/08 04:57:15;;;;;;;3.50;2.60;;;;;;;;;;4991022;28;20214;-80
2022/09/08 05:00:19;;;;;;;3.47;2.90;;;;;;;;;;5001055;28;20187;-80
2022/09/08 05:03:23;;;;;;;5.57;3.30;;;;;;;;;;5000007;28;20182;-80
2022/09/08 05:06:30;;;;;;;3.87;3.27;;;;;;;;;;4989825;28;20194;-79
2022/09/08 05:09:34;;;;;;;5.63;3.30;;;;;;;;;;5001449;28;20186;-80
2022/09/08 05:12:39;;;;;;;5.03;3.33;;;;;;;;;;4989094;28;20209;-80
2022/09/08 05:15:44;;;;;;;3.80;3.37;;;;;;;;;;4990228;28;20187;-81
2022/09/08 05:18:52;;;;;;;4.37;3.30;;;;;;;;;;5002040;28;20523;-80
2022/09/08 05:21:56;;;;;;;3.23;2.90;;;;;;;;;;4990303;28;20213;-80
2022/09/08 05:25:01;;;;;;;4.73;3.20;;;;;;;;;;4989469;28;20178;-80
2022/09/08 05:28:05;;;;;;;3.43;3.10;;;;;;;;;;4989493;28;20174;-80
2022/09/08 05:31:14;;;;;;;4.03;2.97;;;;;;;;;;4989070;28;20218;-80
2022/09/08 05:34:18;;;;;;;3.40;2.77;;;;;;;;;;4989335;28;20570;-80
2022/09/08 05:37:28;;;;;;;4.10;3.00;;;;;;;;;;5000021;28;20205;-80
2022/09/08 05:40:38;;;;;;;3.17;2.87;;;;;;;;;;4990183;28;20174;-80
2022/09/08 05:43:43;;;;;;;3.10;2.50;;;;;;;;;;4989978;28;20650;-80
2022/09/08 05:46:47;;;;;;;3.87;2.73;;;;;;;;;;4989125;28;20175;-80
2022/09/08 05:49:52;;;;;;;3.97;3.53;;;;;;;;;;4989733;28;20182;-79
2022/09/08 05:52:56;;;;;;;4.20;3.10;;;;;;;;;;4987257;28;20178;-79
2022/09/08 05:56:03;;;;;;;3.87;3.30;;;;;;;;;;4989159;28;20186;-80
2022/09/08 05:59:10;;;;;;;3.50;2.87;;;;;;;;;;4989119;28;20190;-80
2022/09/08 06:02:14;;;;;;;2.77;2.53;;;;;;;;;;4979013;28;20217;-80
2022/09/08 06:05:19;;;;;;;3.33;2.27;;;;;;;;;;4978783;28;20170;-79
2022/09/08 06:08:23;;;;;;;3.43;2.57;;;;;;;;;;5001102;28;20206;-80
2022/09/08 06:11:32;;;;;;;2.90;2.23;;;;;;;;;;4999597;28;20570;-80
2022/09/08 06:14:36;;;;;;;4.03;2.20;;;;;;;;;;5001199;28;20182;-80
2022/09/08 06:17:41;;;;;;;3.10;2.20;;;;;;;;;;4990709;28;20685;-80
2022/09/08 06:20:45;;;;;;;4.43;2.23;;;;;;;;;;5000526;28;20174;-80
2022/09/08 06:23:52;;;;;;;5.77;2.17;;;;;;;;;;4991315;28;20182;-79
2022/09/08 06:27:10;;;;;;;3.60;2.13;;;;;;;;;;4979457;28;20187;-80
2022/09/08 06:30:18;;;;;;;5.87;2.40;;;;;;;;;;4979385;28;20634;-80
2022/09/08 06:33:29;;;;;;;5.07;1.90;;;;;;;;;;4990461;28;20202;-80
2022/09/08 06:36:47;;;;;;;4.00;2.13;;;;;;;;;;4990571;28;20198;-79
2022/09/08 06:39:59;;;;;;;6.97;2.40;;;;;;;;;;4991551;28;20175;-80
2022/09/08 06:43:06;;;;;;;6.80;2.20;;;;;;;;;;4983172;28;20581;-79
2022/09/08 06:46:18;;;;;;;3.00;1.87;;;;;;;;;;4994189;28;20182;-79
2022/09/08 06:49:26;;;;;;;5.80;1.90;;;;;;;;;;4981753;28;20178;-80
2022/09/08 06:52:38;;;;;;;2.20;1.30;;;;;;;;;;5003248;28;20222;-79
2022/09/08 06:55:52;;;;;;;1.60;1.20;;;;;;;;;;4992875;28;20622;-80
2022/09/08 06:59:35;;;;;;;3.73;1.23;;;;;;;;;;4991858;28;20206;-79
2022/09/08 07:03:05;;;;;;;2.33;0.90;;;;;;;;;;4980581;28;20226;-80
2022/09/08 07:06:10;;;;;;;1.50;1.10;;;;;;;;;;5003964;28;20186;-80
2022/09/08 07:09:25;;;;;;;2.60;1.30;;;;;;;;;;4992041;28;20174;-80
2022/09/08 07:12:29;;;;;;;3.13;0.80;;;;;;;;;;5003646;28;20213;-80
2022/09/08 07:15:52;;;;;;;1.37;0.80;;;;;;;;;;4982614;28;20621;-80
2022/09/08 07:19:02;;;;;;;1.77;0.90;;;;;;;;;;5003328;28;20211;-80
2022/09/08 07:22:20;;;;;;;1.10;0.83;;;;;;;;;;4980143;28;20222;-80
2022/09/08 07:25:35;;;;;;;1.80;1.00;;;;;;;;;;4995917;28;20187;-80
2022/09/08 07:28:46;;;;;;;3.00;0.80;;;;;;;;;;5005876;28;20171;-80
2022/09/08 07:31:52;;;;;;;1.27;0.80;;;;;;;;;;4994870;28;20214;-79
2022/09/08 07:35:09;;;;;;;1.97;0.80;;;;;;;;;;4995807;28;20206;-80
2022/09/08 07:38:21;;;;;;;1.00;0.63;;;;;;;;;;4983849;28;20214;-80
2022/09/08 07:41:30;;;;;;;2.13;0.90;;;;;;;;;;4988322;28;20218;-79
2022/09/08 07:44:34;;;;;;;1.27;0.70;;;;;;;;;;4987388;28;20194;-80
2022/09/08 07:48:02;;;;;;;1.73;1.00;;;;;;;;;;4979262;28;20198;-79
2022/09/08 07:51:13;;;;;;;1.40;0.93;;;;;;;;;;4979289;28;20681;-79
2022/09/08 07:54:30;;;;;;;3.80;1.00;;;;;;;;;;4982748;28;20198;-79
2022/09/08 07:57:45;;;;;;;1.30;0.70;;;;;;;;;;4994705;28;20218;-79
2022/09/08 08:00:53;;;;;;;1.10;0.90;;;;;;;;;;4995756;28;20217;-79
2022/09/08 08:04:13;;;;;;;1.30;0.90;;;;;;;;;;4994841;28;20547;-79
2022/09/08 08:07:25;;;;;;;1.80;0.93;;;;;;;;;;4983895;28;20198;-79
2022/09/08 08:10:38;;;;;;;1.70;0.93;;;;;;;;;;4996410;28;20186;-79
2022/09/08 08:13:58;;;;;;;1.73;0.90;;;;;;;;;;5006854;28;20178;-81
2022/09/08 08:17:40;;;;;;;1.43;0.80;;;;;;;;;;4982720;28;20511;-79
2022/09/08 08:21:13;;;;;;;1.07;0.80;;;;;;;;;;4984466;28;20183;-79
2022/09/08 08:24:48;;;;;;;2.37;0.90;;;;;;;;;;4988030;28;20190;-80
2022/09/08 08:28:17;;;;;;;0.60;0.60;;;;;;;;;;4993104;28;20175;-80
2022/09/08 08:31:40;;;;;;;1.00;0.80;;;;;;;;;;4992367;28;20217;-80
2022/09/08 08:35:13;;;;;;;1.17;0.90;;;;;;;;;;5003116;28;20182;-80
2022/09/08 08:38:31;;;;;;;1.30;1.00;;;;;;;;;;4991079;28;20202;-80
2022/09/08 08:41:45;;;;;;;2.93;1.07;;;;;;;;;;4989983;28;20214;-81
2022/09/08 08:45:05;;;;;;;1.20;0.90;;;;;;;;;;4990003;28;20543;-80
2022/09/08 08:48:26;;;;;;;1.83;0.90;;;;;;;;;;4990269;28;20179;-80
2022/09/08 08:51:44;;;;;;;1.50;1.07;;;;;;;;;;4977932;28;20221;-80
2022/09/08 08:54:58;;;;;;;2.97;0.90;;;;;;;;;;4978249;28;20526;-81
2022/09/08 08:58:21;;;;;;;2.60;1.00;;;;;;;;;;4977709;28;20217;-80
2022/09/08 09:02:03;;;;;;;3.47;0.70;;;;;;;;;;4989742;28;20218;-80
2022/09/08 09:05:16;;;;;;;2.23;0.80;;;;;;;;;;4976987;28;20186;-80
2022/09/08 09:08:42;;;;;;;2.13;0.70;;;;;;;;;;5000197;28;20202;-79
2022/09/08 09:12:05;;;;;;;2.70;0.90;;;;;;;;;;4988239;28;20222;-80
2022/09/08 09:15:38;;;;;;;1.00;0.90;;;;;;;;;;4999789;28;20182;-80
2022/09/08 09:18:59;;;;;;;1.63;0.80;;;;;;;;;;4999963;28;20665;-80
2022/09/08 09:22:20;;;;;;;1.00;0.70;;;;;;;;;;4976500;28;20213;-80
2022/09/08 09:25:36;;;;;;;1.17;0.80;;;;;;;;;;4989293;28;20190;-81
2022/09/08 09:29:03;;;;;;;0.83;0.70;;;;;;;;;;4989518;28;20190;-80
2022/09/08 09:32:35;;;;;;;1.13;0.67;;;;;;;;;;4989241;28;20217;-80
2022/09/08 09:35:57;;;;;;;1.10;0.90;;;;;;;;;;5001160;28;20178;-80
2022/09/08 09:39:39;;;;;;;1.93;0.83;;;;;;;;;;4989541;28;20662;-80
2022/09/08 09:42:55;;;;;;;2.10;0.80;;;;;;;;;;4987414;28;20218;-80
2022/09/08 09:46:21;;;;;;;0.90;0.80;;;;;;;;;;4987579;28;20182;-80
2022/09/08 09:49:57;;;;;;;1.00;0.90;;;;;;;;;;4987452;28;20178;-80
2022/09/08 09:53:14;;;;;;;2.57;0.90;;;;;;;;;;4967617;28;20201;-80
2022/09/08 09:56:24;;;;;;;0.70;0.70;;;;;;;;;;4975838;28;20178;-80
2022/09/08 09:59:47;;;;;;;2.20;0.80;;;;;;;;;;4986785;28;20214;-79
2022/09/08 10:03:22;;;;;;;2.43;0.80;;;;;;;;;;5000330;28;20527;-79
2022/09/08 10:06:46;;;;;;;0.90;0.70;;;;;;;;;;4988505;28;20186;-79
2022/09/08 10:10:06;;;;;;;2.00;1.00;;;;;;;;;;4988553;28;20198;-79
2022/09/08 10:13:16;;;;;;;0.83;0.80;;;;;;;;;;4988609;28;20177;-80
2022/09/08 10:17:11;;;;;;;1.20;1.03;;;;;;;;;;5000863;28;20182;-79
2022/09/08 10:20:40;;;;;;;1.27;1.00;;;;;;;;;;4953265;29;20171;-79
2022/09/08 10:23:44;;;;;;;1.33;1.00;;;;;;;;;;4968662;28;20202;-79
2022/09/08 10:27:50;;;;;;;1.70;0.90;;;;;;;;;;4979305;28;20539;-79
2022/09/08 10:31:36;;;;;;;5.23;1.00;;;;;;;;;;4920506;29;20215;-79
2022/09/08 10:34:58;;;;;;;2.20;1.07;;;;;;;;;;4951585;28;20193;-79
2022/09/08 10:38:28;;;;;;;1.10;0.90;;;;;;;;;;4990027;28;20218;-79
2022/09/08 10:42:00;;;;;;;1.63;0.90;;;;;;;;;;5000578;28;20213;-79
2022/09/08 10:45:12;;;;;;;1.23;0.90;;;;;;;;;;4979708;28;20182;-79
2022/09/08 10:48:35;;;;;;;1.10;0.90;;;;;;;;;;4979475;28;20190;-79
2022/09/08 10:52:04;;;;;;;2.33;1.00;;;;;;;;;;4990064;28;20222;-79
2022/09/08 10:55:29;;;;;;;1.20;0.70;;;;;;;;;;4990560;28;20178;-80
2022/09/08 10:58:39;;;;;;;0.93;0.80;;;;;;;;;;4978906;28;20206;-80
2022/09/08 11:02:12;;;;;;;1.57;0.80;;;;;;;;;;4989979;28;20222;-80
2022/09/08 11:05:34;;;;;;;1.80;0.70;;;;;;;;;;4979133;28;20182;-80
2022/09/08 11:08:59;;;;;;;0.87;0.70;;;;;;;;;;4990067;28;20179;-80
2022/09/08 11:12:30;;;;;;;3.13;0.90;;;;;;;;;;4989942;28;20221;-80
2022/09/08 11:16:03;;;;;;;3.17;0.90;;;;;;;;;;4990379;28;20179;-80
2022/09/08 11:19:31;;;;;;;3.47;1.00;;;;;;;;;;4989275;28;20213;-80
2022/09/08 11:22:50;;;;;;;1.47;0.77;;;;;;;;;;4989952;28;20214;-80
2022/09/08 11:26:12;;;;;;;2.90;0.80;;;;;;;;;;4989681;28;20182;-80
2022/09/08 11:29:17;;;;;;;2.00;0.93;;;;;;;;;;4989173;28;20179;-80
2022/09/08 11:33:07;;;;;;;2.47;0.70;;;;;;;;;;4989270;28;20218;-80
2022/09/08 11:36:24;;;;;;;1.10;0.80;;;;;;;;;;4978757;28;20187;-80
2022/09/08 11:39:51;;;;;;;1.03;0.80;;;;;;;;;;5000917;28;20215;-80
2022/09/08 11:43:13;;;;;;;1.57;1.00;;;;;;;;;;4978214;28;20637;-80
2022/09/08 11:46:40;;;;;;;0.90;0.80;;;;;;;;;;4978665;28;20186;-80
2022/09/08 11:50:13;;;;;;;1.43;0.90;;;;;;;;;;4989723;28;20507;-79
2022/09/08 11:53:47;;;;;;;2.87;0.80;;;;;;;;;;5001389;28;20190;-80
2022/09/08 11:57:00;;;;;;;2.20;0.70;;;;;;;;;;4990105;28;20186;-79
2022/09/08 12:00:07;;;;;;;1.53;0.80;;;;;;;;;;4989709;28;20210;-80
2022/09/08 12:03:46;;;;;;;1.43;1.00;;;;;;;;;;5001605;28;20190;-80
2022/09/08 12:06:55;;;;;;;1.70;0.87;;;;;;;;;;5000715;28;20209;-81
2022/09/08 12:10:28;;;;;;;2.97;1.00;;;;;;;;;;4988266;28;20188;-80
2022/09/08 12:13:55;;;;;;;2.20;0.90;;;;;;;;;;4989233;28;20640;-79
2022/09/08 12:17:20;;;;;;;2.10;0.90;;;;;;;;;;4999890;28;20186;-80
2022/09/08 12:20:54;;;;;;;2.10;0.90;;;;;;;;;;4988656;28;20215;-80
2022/09/08 12:24:18;;;;;;;0.83;0.70;;;;;;;;;;5001206;28;20188;-80
2022/09/08 12:28:11;;;;;;;2.07;0.90;;;;;;;;;;4999560;28;20188;-81
2022/09/08 12:31:43;;;;;;;1.77;0.73;;;;;;;;;;4999338;28;20221;-80
2022/09/08 12:35:05;;;;;;;2.57;0.77;;;;;;;;;;4988382;28;20189;-80
2022/09/08 12:38:31;;;;;;;1.23;0.73;;;;;;;;;;4987528;28;20185;-79
2022/09/08 12:41:45;;;;;;;2.40;0.80;;;;;;;;;;4987513;28;20219;-79
2022/09/08 12:45:24;;;;;;;0.77;0.70;;;;;;;;;;4976412;28;20182;-79
2022/09/08 12:49:04;;;;;;;1.00;0.80;;;;;;;;;;4973946;28;20664;-79
2022/09/08 12:52:41;;;;;;;2.33;0.80;;;;;;;;;;4998747;28;20218;-80
2022/09/08 12:55:55;;;;;;;2.40;0.80;;;;;;;;;;4999667;28;20184;-79
2022/09/08 12:59:50;;;;;;;1.47;0.70;;;;;;;;;;4977628;28;20208;-79
2022/09/08 13:03:19;;;;;;;1.13;0.73;;;;;;;;;;4996767;28;20209;-80
2022/09/08 13:06:46;;;;;;;1.75;0.80;;;;;;;;;;5000073;28;20619;-80
2022/09/08 13:10:09;;;;;;;3.17;1.00;;;;;;;;;;4987510;28;20182;-80
2022/09/08 13:13:37;;;;;;;1.40;0.80;;;;;;;;;;4999969;28;20179;-80
2022/09/08 13:16:54;;;;;;;1.70;0.87;;;;;;;;;;4987658;28;20188;-80
2022/09/08 13:20:22;;;;;;;2.60;1.03;;;;;;;;;;4998801;28;20217;-80
2022/09/08 13:23:46;;;;;;;1.07;0.67;;;;;;;;;;4999493;28;20178;-80
2022/09/08 13:27:03;;;;;;;3.70;1.00;;;;;;;;;;4999578;28;20188;-79
2022/09/08 13:30:07;;;;;;;6.10;1.67;;;;;;;;;;4997084;28;20179;-79
2022/09/08 13:33:29;;;;;;;3.13;1.03;;;;;;;;;;4987766;28;20655;-80
2022/09/08 13:37:01;;;;;;;4.57;1.03;;;;;;;;;;4976970;28;20183;-81
2022/09/08 13:40:29;;;;;;;2.00;0.87;;;;;;;;;;4976579;28;20213;-81
2022/09/08 13:43:52;;;;;;;1.10;0.70;;;;;;;;;;4976031;28;20187;-80
2022/09/08 13:47:15;;;;;;;2.70;0.70;;;;;;;;;;4976993;28;20185;-80
2022/09/08 13:50:46;;;;;;;1.40;0.90;;;;;;;;;;4999907;28;20186;-80
2022/09/08 13:53:56;;;;;;;3.50;0.90;;;;;;;;;;4991090;28;20188;-80
2022/09/08 13:57:29;;;;;;;1.67;0.80;;;;;;;;;;5000817;28;20194;-80
2022/09/08 14:01:01;;;;;;;1.80;1.03;;;;;;;;;;4988671;28;20217;-80
2022/09/08 14:04:11;;;;;;;1.23;0.53;;;;;;;;;;4992454;28;20204;-80
2022/09/08 14:07:24;;;;;;;2.77;0.70;;;;;;;;;;4980405;28;20206;-79
2022/09/08 14:10:40;;;;;;;1.73;0.60;;;;;;;;;;5002124;28;20533;-80
2022/09/08 14:13:45;;;;;;;1.53;0.90;;;;;;;;;;4991345;28;20188;-80
2022/09/08 14:16:53;;;;;;;1.27;0.67;;;;;;;;;;4991537;28;20178;-79
2022/09/08 14:20:22;;;;;;;1.23;0.60;;;;;;;;;;4990887;28;20567;-80
2022/09/08 14:23:58;;;;;;;1.90;0.67;;;;;;;;;;5003082;28;20179;-79
2022/09/08 14:27:20;;;;;;;1.67;0.80;;;;;;;;;;4991374;28;20183;-80
2022/09/08 14:30:49;;;;;;;2.87;0.70;;;;;;;;;;5001884;28;20179;-79
2022/09/08 14:33:59;;;;;;;1.53;0.67;;;;;;;;;;4989001;28;20184;-79
2022/09/08 14:37:09;;;;;;;1.77;0.70;;;;;;;;;;5000261;28;20193;-79
2022/09/08 14:40:23;;;;;;;1.90;0.50;;;;;;;;;;4998598;28;20211;-79
2022/09/08 14:43:41;;;;;;;1.10;0.60;;;;;;;;;;4987731;28;20519;-80
2022/09/08 14:46:50;;;;;;;1.60;0.70;;;;;;;;;;4998516;28;20189;-79
2022/09/08 14:50:07;;;;;;;0.77;0.60;;;;;;;;;;4999893;28;20197;-79
2022/09/08 14:53:37;;;;;;;1.17;0.73;;;;;;;;;;4998501;28;20195;-79
2022/09/08 14:56:42;;;;;;;0.80;0.55;;;;;;;;;;4987736;28;20247;-79
2022/09/08 15:00:03;;;;;;;1.53;0.70;;;;;;;;;;4987757;28;20203;-79
2022/09/08 15:03:26;;;;;;;2.58;0.70;;;;;;;;;;4978942;28;20184;-79
2022/09/08 15:06:51;;;;;;;1.38;0.80;;;;;;;;;;4991520;28;20212;-79
2022/09/08 15:10:05;;;;;;;1.10;0.55;;;;;;;;;;5001221;28;20544;-80
2022/09/08 15:13:14;;;;;;;1.65;0.70;;;;;;;;;;4989672;28;20176;-79
2022/09/08 15:16:27;;;;;;;2.88;0.70;;;;;;;;;;4979145;28;20187;-79
2022/09/08 15:19:47;;;;;;;0.80;0.70;;;;;;;;;;4979641;28;20219;-80
2022/09/08 15:23:10;;;;;;;1.43;0.97;;;;;;;;;;5002378;28;20217;-79
2022/09/08 15:26:40;;;;;;;2.17;1.00;;;;;;;;;;4991079;28;20516;-79
2022/09/08 15:29:55;;;;;;;1.60;0.70;;;;;;;;;;4991148;28;20185;-81
2022/09/08 15:33:19;;;;;;;2.10;0.70;;;;;;;;;;4980424;28;20183;-81
2022/09/08 15:36:35;;;;;;;0.90;0.70;;;;;;;;;;4991472;28;20189;-79
2022/09/08 15:40:19;;;;;;;1.20;0.90;;;;;;;;;;4991719;28;20217;-80
2022/09/08 15:43:35;;;;;;;1.60;0.70;;;;;;;;;;4969725;28;20185;-81
2022/09/08 15:46:48;;;;;;;1.10;0.80;;;;;;;;;;4976801;28;20177;-80
2022/09/08 15:50:07;;;;;;;1.13;0.60;;;;;;;;;;4979903;28;20181;-81
2022/09/08 15:53:37;;;;;;;3.43;0.97;;;;;;;;;;4990250;28;20181;-79
2022/09/08 15:57:09;;;;;;;1.43;0.80;;;;;;;;;;5001989;28;20176;-80
2022/09/08 16:00:26;;;;;;;1.53;0.90;;;;;;;;;;4989629;28;20214;-80
2022/09/08 16:03:50;;;;;;;2.60;0.80;;;;;;;;;;5001516;28;20183;-82
2022/09/08 16:07:03;;;;;;;2.97;1.00;;;;;;;;;;4989714;28;20210;-82
2022/09/08 16:10:17;;;;;;;1.97;0.93;;;;;;;;;;4989898;28;20190;-80
2022/09/08 16:13:26;;;;;;;1.37;1.00;;;;;;;;;;4988928;28;20187;-78
2022/09/08 16:16:45;;;;;;;2.77;0.70;;;;;;;;;;4989352;28;20178;-79
2022/09/08 16:20:10;;;;;;;2.40;0.80;;;;;;;;;;4989590;28;20206;-81
2022/09/08 16:23:50;;;;;;;1.60;0.93;;;;;;;;;;4990942;28;20174;-80
2022/09/08 16:27:16;;;;;;;2.97;0.80;;;;;;;;;;4995298;28;20197;-79
2022/09/08 16:30:37;;;;;;;2.30;0.80;;;;;;;;;;4989433;28;20183;-78
2022/09/08 16:34:20;;;;;;;2.07;1.10;;;;;;;;;;4979515;28;20194;-80
2022/09/08 16:37:30;;;;;;;3.57;1.30;;;;;;;;;;4943512;28;20181;-78
2022/09/08 16:40:51;;;;;;;3.57;1.50;;;;;;;;;;4999564;28;20218;-79
2022/09/08 16:44:02;;;;;;;1.80;0.90;;;;;;;;;;4998413;28;20187;-78
2022/09/08 16:47:09;;;;;;;2.20;1.00;;;;;;;;;;4999245;28;20178;-78
2022/09/08 16:50:25;;;;;;;2.03;0.70;;;;;;;;;;4999126;28;20174;-78
2022/09/08 16:54:07;;;;;;;4.07;1.03;;;;;;;;;;4997354;28;20198;-78
2022/09/08 16:57:46;;;;;;;4.20;0.90;;;;;;;;;;4995445;28;20175;-78
2022/09/08 17:01:13;;;;;;;2.57;0.70;;;;;;;;;;4984344;28;20225;-78
2022/09/08 17:04:23;;;;;;;2.23;1.10;;;;;;;;;;4996045;28;20527;-78
2022/09/08 17:07:30;;;;;;;2.40;0.90;;;;;;;;;;4995799;28;20209;-78
2022/09/08 17:10:40;;;;;;;4.57;1.03;;;;;;;;;;4996556;28;20175;-78
2022/09/08 17:13:44;;;;;;;2.87;1.00;;;;;;;;;;4996546;28;20198;-78
2022/09/08 17:17:34;;;;;;;1.67;0.80;;;;;;;;;;4985276;28;20550;-77
2022/09/08 17:21:09;;;;;;;3.07;0.90;;;;;;;;;;4944479;28;20604;-78
2022/09/08 17:24:39;;;;;;;3.40;1.07;;;;;;;;;;4984884;28;20546;-77
2022/09/08 17:27:54;;;;;;;1.70;0.90;;;;;;;;;;4997292;28;20186;-78
2022/09/08 17:31:07;;;;;;;1.90;1.20;;;;;;;;;;4996423;28;20240;-78
2022/09/08 17:34:21;;;;;;;1.10;0.80;;;;;;;;;;4999065;28;20175;-78
2022/09/08 17:37:35;;;;;;;1.57;0.83;;;;;;;;;;4991975;28;20190;-78
2022/09/08 17:41:26;;;;;;;1.67;1.10;;;;;;;;;;4999454;28;20209;-78
2022/09/08 17:45:03;;;;;;;1.67;0.93;;;;;;;;;;4997818;28;20183;-78
2022/09/08 17:48:12;;;;;;;2.80;0.93;;;;;;;;;;4984987;28;20666;-76
2022/09/08 17:51:33;;;;;;;2.73;1.03;;;;;;;;;;4996812;28;20210;-77
2022/09/08 17:54:45;;;;;;;2.30;1.03;;;;;;;;;;4976998;28;20195;-77
2022/09/08 17:57:59;;;;;;;1.70;1.00;;;;;;;;;;4985435;28;20563;-77
2022/09/08 18:01:21;;;;;;;1.73;1.20;;;;;;;;;;4980620;28;20230;-76
2022/09/08 18:04:36;;;;;;;2.87;1.10;;;;;;;;;;4974148;28;20191;-76
2022/09/08 18:07:58;;;;;;;1.57;0.93;;;;;;;;;;4962896;28;20210;-76
2022/09/08 18:11:29;;;;;;;1.23;0.90;;;;;;;;;;4951657;28;20218;-77
2022/09/08 18:14:49;;;;;;;3.90;1.13;;;;;;;;;;4944649;28;20183;-80
2022/09/08 18:17:53;;;;;;;1.80;1.10;;;;;;;;;;4977428;28;20175;-79
2022/09/08 18:21:13;;;;;;;1.97;1.10;;;;;;;;;;4977403;28;20230;-81
2022/09/08 18:24:26;;;;;;;2.43;1.20;;;;;;;;;;4966711;28;20524;-78
2022/09/08 18:27:47;;;;;;;1.93;1.20;;;;;;;;;;4965301;28;20187;-78
2022/09/08 18:31:13;;;;;;;2.83;1.20;;;;;;;;;;4977954;28;20218;-79
2022/09/08 18:34:36;;;;;;;1.90;1.33;;;;;;;;;;4971892;28;20171;-81
2022/09/08 18:37:55;;;;;;;2.37;1.10;;;;;;;;;;4967178;28;20179;-81
2022/09/08 18:41:17;;;;;;;2.07;0.90;;;;;;;;;;4981238;28;20586;-79
2022/09/08 18:44:25;;;;;;;3.10;1.23;;;;;;;;;;4981505;28;20175;-78
2022/09/08 18:47:47;;;;;;;4.33;1.27;;;;;;;;;;4982333;28;20179;-79
2022/09/08 18:51:16;;;;;;;1.50;1.30;;;;;;;;;;4981036;28;20536;-78
2022/09/08 18:55:04;;;;;;;2.40;1.50;;;;;;;;;;4970500;28;20183;-81
2022/09/08 18:58:08;;;;;;;1.97;1.40;;;;;;;;;;4969247;28;20183;-79
2022/09/08 19:01:57;;;;;;;2.90;1.43;;;;;;;;;;4981135;28;20234;-79
2022/09/08 19:05:13;;;;;;;5.47;1.43;;;;;;;;;;4980762;28;20183;-79
2022/09/08 19:08:27;;;;;;;8.43;1.73;;;;;;;;;;4980028;28;20203;-78
2022/09/08 19:11:36;;;;;;;2.27;1.57;;;;;;;;;;4980505;28;20214;-79
2022/09/08 19:14:47;;;;;;;4.53;1.97;;;;;;;;;;4980324;28;20194;-78
2022/09/08 19:17:57;;;;;;;2.73;1.83;;;;;;;;;;4979214;28;20195;-77
2022/09/08 19:21:05;;;;;;;1.90;1.60;;;;;;;;;;4981094;28;20574;-78
2022/09/08 19:24:18;;;;;;;6.60;1.43;;;;;;;;;;4979834;28;20183;-78
2022/09/08 19:27:32;;;;;;;2.27;1.60;;;;;;;;;;4965801;28;20199;-77
2022/09/08 19:30:51;;;;;;;2.20;1.43;;;;;;;;;;4954815;28;20195;-78
2022/09/08 19:33:59;;;;;;;2.83;1.80;;;;;;;;;;4978495;28;20187;-77
2022/09/08 19:37:09;;;;;;;5.17;1.80;;;;;;;;;;4966605;28;20199;-78
2022/09/08 19:40:29;;;;;;;2.27;1.87;;;;;;;;;;4978430;28;20543;-78
2022/09/08 19:44:06;;;;;;;2.50;1.87;;;;;;;;;;4979854;28;20183;-77